createdAt,value
2016-02-05T00:00:18.055Z,1023.83
2016-02-05T00:01:18.075Z,1023.84
2016-02-05T00:02:18.702Z,1023.84
2016-02-05T00:03:43.816Z,1023.82
2016-02-05T00:04:33.976Z,1023.79
2016-02-05T00:05:27.728Z,1023.8
2016-02-05T00:06:43.591Z,1023.8
2016-02-05T00:07:30.891Z,1023.78
2016-02-05T00:09:30.943Z,1023.87
2016-02-05T00:10:30.993Z,1023.88
2016-02-05T00:11:43.730Z,1023.91
2016-02-05T00:12:43.764Z,1023.92
2016-02-05T00:13:56.736Z,1023.87
2016-02-05T00:14:50.290Z,1023.93
2016-02-05T00:17:40.690Z,1023.9
2016-02-05T00:19:50.304Z,1023.85
2016-02-05T00:22:05.513Z,1023.96
2016-02-05T00:23:05.532Z,1023.93
2016-02-05T00:24:05.581Z,1023.93
2016-02-05T00:25:09.480Z,1023.95
2016-02-05T00:26:09.514Z,1023.92
2016-02-05T00:27:09.548Z,1023.94
2016-02-05T00:28:09.581Z,1023.88
2016-02-05T00:29:09.600Z,1023.87
2016-02-05T00:30:22.374Z,1023.94
2016-02-05T00:31:09.659Z,1023.94
2016-02-05T00:32:09.681Z,1023.96
2016-02-05T00:33:09.716Z,1023.97
2016-02-05T00:34:11.157Z,1023.95
2016-02-05T00:35:35.437Z,1023.95
2016-02-05T00:36:23.765Z,1023.94
2016-02-05T00:37:41.599Z,1023.91
2016-02-05T00:38:38.211Z,1023.88
2016-02-05T00:39:44.683Z,1023.86
2016-02-05T00:40:44.716Z,1023.89
2016-02-05T00:41:51.219Z,1023.92
2016-02-05T00:43:00.758Z,1023.89
2016-02-05T00:44:00.793Z,1023.93
2016-02-05T00:45:00.828Z,1023.92
2016-02-05T00:46:01.455Z,1023.91
2016-02-05T00:47:00.879Z,1023.9
2016-02-05T00:48:00.914Z,1023.92
2016-02-05T00:49:00.932Z,1023.91
2016-02-05T00:50:00.966Z,1023.9
2016-02-05T00:51:01.000Z,1023.95
2016-02-05T00:52:01.018Z,1023.97
2016-02-05T00:53:13.787Z,1023.96
2016-02-05T00:54:01.070Z,1023.96
2016-02-05T00:55:01.106Z,1023.98
2016-02-05T00:56:20.345Z,1023.95
2016-02-05T00:57:04.285Z,1023.91
2016-02-05T00:58:23.463Z,1023.91
2016-02-05T00:59:04.481Z,1023.92
2016-02-05T01:01:04.331Z,1023.91
2016-02-05T01:02:04.365Z,1023.93
2016-02-05T01:03:04.398Z,1023.91
2016-02-05T01:04:23.620Z,1023.9
2016-02-05T01:05:23.654Z,1023.9
2016-02-05T01:06:30.157Z,1023.95
2016-02-05T01:09:04.557Z,1023.9
2016-02-05T01:10:04.590Z,1023.88
2016-02-05T01:11:04.608Z,1023.97
2016-02-05T01:12:04.673Z,1023.95
2016-02-05T01:13:10.944Z,1023.96
2016-02-05T01:14:23.899Z,1023.96
2016-02-05T01:15:04.730Z,1023.95
2016-02-05T01:17:19.922Z,1024.02
2016-02-05T01:18:19.960Z,1023.99
2016-02-05T01:19:19.995Z,1024.06
2016-02-05T01:20:32.749Z,1024.05
2016-02-05T01:21:20.655Z,1024.06
2016-02-05T01:22:45.739Z,1024.07
2016-02-05T01:23:20.708Z,1024.07
2016-02-05T01:25:23.916Z,1024.07
2016-02-05T01:26:23.936Z,1024.07
2016-02-05T01:27:23.970Z,1024.1
2016-02-05T01:28:23.977Z,1024.08
2016-02-05T01:29:24.026Z,1024.11
2016-02-05T01:30:24.044Z,1024.09
2016-02-05T01:31:24.078Z,1024.07
2016-02-05T01:32:36.833Z,1024.08
2016-02-05T01:33:24.130Z,1024.12
2016-02-05T01:34:24.149Z,1024.12
2016-02-05T01:35:36.924Z,1024.11
2016-02-05T01:36:24.205Z,1024.09
2016-02-05T01:37:24.239Z,1024.09
2016-02-05T01:38:24.273Z,1024.06
2016-02-05T01:39:24.292Z,1024.07
2016-02-05T01:40:24.435Z,1024.08
2016-02-05T01:41:24.953Z,1024.12
2016-02-05T01:42:24.377Z,1024.13
2016-02-05T01:43:30.661Z,1024.13
2016-02-05T01:44:24.430Z,1024.08
2016-02-05T01:45:24.463Z,1024.12
2016-02-05T01:46:24.497Z,1024.15
2016-02-05T01:47:24.515Z,1024.15
2016-02-05T01:48:24.551Z,1024.2
2016-02-05T01:49:37.306Z,1024.19
2016-02-05T01:50:24.588Z,1024.21
2016-02-05T01:51:24.636Z,1024.22
2016-02-05T01:52:24.655Z,1024.17
2016-02-05T01:53:24.678Z,1024.17
2016-02-05T01:54:37.448Z,1024.2
2016-02-05T01:55:24.732Z,1024.2
2016-02-05T01:56:24.767Z,1024.2
2016-02-05T01:57:24.785Z,1024.22
2016-02-05T01:58:24.812Z,1024.22
2016-02-05T01:59:24.845Z,1024.21
2016-02-05T02:00:24.879Z,1024.16
2016-02-05T02:01:31.179Z,1024.18
2016-02-05T02:02:24.931Z,1024.12
2016-02-05T02:03:37.687Z,1024.13
2016-02-05T02:04:24.989Z,1024.15
2016-02-05T02:05:25.007Z,1024.18
2016-02-05T02:06:37.777Z,1024.18
2016-02-05T02:07:25.074Z,1024.16
2016-02-05T02:08:25.094Z,1024.15
2016-02-05T02:09:25.112Z,1024.16
2016-02-05T02:10:37.884Z,1024.1
2016-02-05T02:11:25.181Z,1024.09
2016-02-05T02:12:25.198Z,1024.09
2016-02-05T02:13:25.843Z,1024.11
2016-02-05T02:14:25.251Z,1024.09
2016-02-05T02:15:25.285Z,1024.05
2016-02-05T02:16:25.304Z,1024.09
2016-02-05T02:17:25.353Z,1024.13
2016-02-05T02:18:25.371Z,1024.18
2016-02-05T02:19:25.406Z,1024.16
2016-02-05T02:20:25.425Z,1024.2
2016-02-05T02:21:25.444Z,1024.16
2016-02-05T02:22:25.478Z,1024.13
2016-02-05T02:23:25.512Z,1024.14
2016-02-05T02:24:25.547Z,1024.21
2016-02-05T02:25:28.721Z,1024.21
2016-02-05T02:26:28.755Z,1024.14
2016-02-05T02:27:28.773Z,1024.15
2016-02-05T02:28:28.810Z,1024.16
2016-02-05T02:29:28.827Z,1024.14
2016-02-05T02:30:28.867Z,1024.13
2016-02-05T02:31:35.154Z,1024.15
2016-02-05T02:32:28.904Z,1024.14
2016-02-05T02:33:28.937Z,1024.11
2016-02-05T02:34:28.972Z,1024.11
2016-02-05T02:35:28.990Z,1024.07
2016-02-05T02:36:29.024Z,1024.05
2016-02-05T02:37:29.042Z,1024.06
2016-02-05T02:38:29.076Z,1024.05
2016-02-05T02:39:29.110Z,1024.06
2016-02-05T02:40:29.130Z,1024.05
2016-02-05T02:41:41.899Z,1024.08
2016-02-05T02:42:29.196Z,1024.03
2016-02-05T02:43:29.216Z,1024.03
2016-02-05T02:44:29.239Z,1024.06
2016-02-05T02:45:29.273Z,1024.02
2016-02-05T02:46:29.337Z,1024.02
2016-02-05T02:47:29.324Z,1024.02
2016-02-05T02:48:29.359Z,1024.02
2016-02-05T02:49:29.376Z,1024.04
2016-02-05T02:50:29.411Z,1024.02
2016-02-05T02:51:29.429Z,1024.04
2016-02-05T02:52:29.463Z,1024
2016-02-05T02:53:42.237Z,1024
2016-02-05T02:54:29.518Z,1024.04
2016-02-05T02:55:29.552Z,1024.05
2016-02-05T02:56:42.308Z,1024.01
2016-02-05T02:57:29.604Z,1024.03
2016-02-05T02:58:55.299Z,1024.06
2016-02-05T02:59:39.208Z,1024.08
2016-02-05T03:00:39.230Z,1024.06
2016-02-05T03:01:39.263Z,1024.05
2016-02-05T03:02:39.282Z,1024.07
2016-02-05T03:03:39.316Z,1024.03
2016-02-05T03:04:39.350Z,1024.01
2016-02-05T03:05:39.369Z,1024.02
2016-02-05T03:06:39.403Z,1023.98
2016-02-05T03:07:39.421Z,1023.98
2016-02-05T03:08:39.456Z,1023.99
2016-02-05T03:09:39.489Z,1024
2016-02-05T03:10:39.508Z,1023.97
2016-02-05T03:11:52.275Z,1024
2016-02-05T03:12:39.560Z,1024.04
2016-02-05T03:13:39.595Z,1024.1
2016-02-05T03:14:39.617Z,1024.09
2016-02-05T03:15:40.247Z,1024.11
2016-02-05T03:16:39.672Z,1024.14
2016-02-05T03:17:39.706Z,1024.14
2016-02-05T03:18:39.724Z,1024.19
2016-02-05T03:19:52.496Z,1024.2
2016-02-05T03:20:39.781Z,1024.17
2016-02-05T03:21:39.815Z,1024.2
2016-02-05T03:22:39.833Z,1024.18
2016-02-05T03:23:39.867Z,1024.14
2016-02-05T03:24:39.884Z,1024.12
2016-02-05T03:25:52.654Z,1024.11
2016-02-05T03:26:39.954Z,1024.12
2016-02-05T03:28:05.644Z,1024.11
2016-02-05T03:28:49.537Z,1024.1
2016-02-05T03:29:49.587Z,1024.04
2016-02-05T03:30:49.602Z,1024.07
2016-02-05T03:31:49.620Z,1024.03
2016-02-05T03:32:49.654Z,1024.05
2016-02-05T03:33:49.687Z,1024.05
2016-02-05T03:34:49.705Z,1024.05
2016-02-05T03:36:08.943Z,1024.08
2016-02-05T03:36:49.758Z,1024.07
2016-02-05T03:37:49.807Z,1024.1
2016-02-05T03:38:49.812Z,1024.1
2016-02-05T03:39:49.845Z,1024.07
2016-02-05T03:40:49.865Z,1024.09
2016-02-05T03:41:49.898Z,1024.1
2016-02-05T03:42:49.933Z,1024.06
2016-02-05T03:43:49.951Z,1024.06
2016-02-05T03:44:49.984Z,1024.08
2016-02-05T03:45:50.021Z,1024.09
2016-02-05T03:46:50.023Z,1024.11
2016-02-05T03:47:56.323Z,1024.06
2016-02-05T03:49:02.825Z,1024.09
2016-02-05T03:50:09.328Z,1024.06
2016-02-05T03:50:50.159Z,1024.06
2016-02-05T03:51:50.178Z,1024.04
2016-02-05T03:53:15.930Z,1024.05
2016-02-05T03:53:50.229Z,1024
2016-02-05T03:54:50.249Z,1024
2016-02-05T03:55:50.281Z,1024.01
2016-02-05T03:56:50.301Z,1024.02
2016-02-05T03:57:50.335Z,1024
2016-02-05T03:58:50.355Z,1023.97
2016-02-05T03:59:50.380Z,1023.96
2016-02-05T04:01:03.148Z,1023.97
2016-02-05T04:01:50.433Z,1023.93
2016-02-05T04:02:50.467Z,1023.9
2016-02-05T04:03:50.485Z,1023.92
2016-02-05T04:05:03.270Z,1023.92
2016-02-05T04:05:50.556Z,1023.93
2016-02-05T04:07:16.247Z,1023.91
2016-02-05T04:08:03.342Z,1023.93
2016-02-05T04:08:50.627Z,1023.91
2016-02-05T04:10:05.817Z,1023.9
2016-02-05T04:11:05.835Z,1023.92
2016-02-05T04:12:05.869Z,1023.88
2016-02-05T04:13:18.638Z,1023.94
2016-02-05T04:14:05.921Z,1023.94
2016-02-05T04:15:31.627Z,1024
2016-02-05T04:16:09.911Z,1023.96
2016-02-05T04:17:09.929Z,1023.97
2016-02-05T04:18:09.964Z,1023.97
2016-02-05T04:19:09.982Z,1023.98
2016-02-05T04:20:10.220Z,1023.99
2016-02-05T04:21:22.769Z,1024.04
2016-02-05T04:22:11.491Z,1023.99
2016-02-05T04:23:35.780Z,1023.99
2016-02-05T04:24:19.628Z,1023.97
2016-02-05T04:25:45.350Z,1023.98
2016-02-05T04:26:32.413Z,1023.93
2016-02-05T04:27:19.713Z,1023.96
2016-02-05T04:28:45.422Z,1023.98
2016-02-05T04:29:29.295Z,1023.99
2016-02-05T04:30:38.844Z,1023.97
2016-02-05T04:31:38.878Z,1023.97
2016-02-05T04:32:38.897Z,1023.97
2016-02-05T04:33:38.924Z,1023.97
2016-02-05T04:34:38.934Z,1023.95
2016-02-05T04:35:38.960Z,1023.9
2016-02-05T04:36:45.231Z,1023.93
2016-02-05T04:37:38.997Z,1023.89
2016-02-05T04:38:51.746Z,1023.92
2016-02-05T04:39:39.042Z,1023.91
2016-02-05T04:40:58.278Z,1023.89
2016-02-05T04:41:39.090Z,1023.93
2016-02-05T04:44:19.765Z,1023.92
2016-02-05T04:46:23.081Z,1023.9
2016-02-05T04:47:23.113Z,1023.9
2016-02-05T04:48:23.131Z,1023.84
2016-02-05T04:49:23.149Z,1023.82
2016-02-05T04:50:23.182Z,1023.81
2016-02-05T04:51:23.218Z,1023.8
2016-02-05T04:52:35.970Z,1023.8
2016-02-05T04:53:23.269Z,1023.79
2016-02-05T04:54:42.493Z,1023.75
2016-02-05T04:55:36.056Z,1023.77
2016-02-05T04:56:23.344Z,1023.75
2016-02-05T04:57:49.052Z,1023.73
2016-02-05T04:59:35.556Z,1023.68
2016-02-05T05:00:35.577Z,1023.67
2016-02-05T05:01:35.610Z,1023.62
2016-02-05T05:02:50.834Z,1023.63
2016-02-05T05:03:50.872Z,1023.6
2016-02-05T05:06:00.688Z,1023.57
2016-02-05T05:07:00.707Z,1023.58
2016-02-05T05:08:00.726Z,1023.54
2016-02-05T05:10:04.402Z,1023.52
2016-02-05T05:12:45.286Z,1023.46
2016-02-05T05:13:19.646Z,1023.46
2016-02-05T05:14:19.679Z,1023.48
2016-02-05T05:15:29.229Z,1023.48
2016-02-05T05:16:29.263Z,1023.5
2016-02-05T05:17:42.016Z,1023.47
2016-02-05T05:18:29.316Z,1023.47
2016-02-05T05:19:48.555Z,1023.47
2016-02-05T05:20:42.118Z,1023.42
2016-02-05T05:22:39.014Z,1023.45
2016-02-05T05:24:48.570Z,1023.46
2016-02-05T05:25:48.605Z,1023.48
2016-02-05T05:27:05.278Z,1023.53
2016-02-05T05:28:05.297Z,1023.48
2016-02-05T05:29:05.335Z,1023.45
2016-02-05T05:30:24.559Z,1023.44
2016-02-05T05:31:06.812Z,1023.44
2016-02-05T05:33:20.629Z,1023.38
2016-02-05T05:34:20.664Z,1023.33
2016-02-05T05:35:23.760Z,1023.34
2016-02-05T05:36:49.472Z,1023.3
2016-02-05T05:38:35.975Z,1023.35
2016-02-05T05:39:35.994Z,1023.34
2016-02-05T05:40:36.028Z,1023.39
2016-02-05T05:41:48.782Z,1023.34
2016-02-05T05:42:36.079Z,1023.36
2016-02-05T05:44:01.774Z,1023.32
2016-02-05T05:44:45.667Z,1023.36
2016-02-05T05:46:04.904Z,1023.33
2016-02-05T05:46:50.188Z,1023.34
2016-02-05T05:48:09.425Z,1023.35
2016-02-05T05:49:06.038Z,1023.36
2016-02-05T05:50:06.072Z,1023.32
2016-02-05T05:51:06.091Z,1023.31
2016-02-05T05:52:18.858Z,1023.35
2016-02-05T05:53:06.143Z,1023.33
2016-02-05T05:54:31.849Z,1023.3
2016-02-05T05:55:06.211Z,1023.35
2016-02-05T05:56:06.229Z,1023.34
2016-02-05T05:57:21.418Z,1023.34
2016-02-05T05:58:21.453Z,1023.31
2016-02-05T05:59:27.737Z,1023.27
2016-02-05T06:00:21.506Z,1023.28
2016-02-05T06:01:34.258Z,1023.26
2016-02-05T06:02:21.559Z,1023.19
2016-02-05T06:03:21.592Z,1023.21
2016-02-05T06:04:34.345Z,1023.21
2016-02-05T06:06:31.288Z,1023.2
2016-02-05T06:08:34.497Z,1023.19
2016-02-05T06:09:34.532Z,1023.21
2016-02-05T06:10:49.740Z,1023.15
2016-02-05T06:11:49.742Z,1023.19
2016-02-05T06:12:49.776Z,1023.2
2016-02-05T06:14:02.576Z,1023.22
2016-02-05T06:16:05.003Z,1023.2
2016-02-05T06:17:30.709Z,1023.15
2016-02-05T06:18:40.276Z,1023.19
2016-02-05T06:20:43.485Z,1023.1
2016-02-05T06:21:43.507Z,1023.08
2016-02-05T06:22:53.137Z,1023.06
2016-02-05T06:23:53.172Z,1023.05
2016-02-05T06:24:53.205Z,1023.05
2016-02-05T06:25:53.208Z,1023.04
2016-02-05T06:27:05.991Z,1023.02
2016-02-05T06:27:53.276Z,1023.05
2016-02-05T06:29:18.969Z,1023.03
2016-02-05T06:29:53.324Z,1023.04
2016-02-05T06:30:53.358Z,1023.09
2016-02-05T06:31:53.376Z,1023.14
2016-02-05T06:32:59.676Z,1023.07
2016-02-05T06:33:53.429Z,1023.12
2016-02-05T06:34:53.462Z,1023.1
2016-02-05T06:36:12.700Z,1023.08
2016-02-05T06:36:56.625Z,1023.07
2016-02-05T06:38:22.314Z,1023.08
2016-02-05T06:39:37.598Z,1023.1
2016-02-05T06:40:37.633Z,1023.13
2016-02-05T06:41:37.652Z,1023.12
2016-02-05T06:42:56.845Z,1023.13
2016-02-05T06:43:37.673Z,1023.12
2016-02-05T06:45:03.319Z,1023.16
2016-02-05T06:46:47.197Z,1023.14
2016-02-05T06:47:47.231Z,1023.16
2016-02-05T06:48:47.248Z,1023.14
2016-02-05T06:49:56.800Z,1023.18
2016-02-05T06:52:32.166Z,1023.19
2016-02-05T06:53:32.090Z,1023.16
2016-02-05T06:54:41.640Z,1023.2
2016-02-05T06:55:41.658Z,1023.21
2016-02-05T06:56:47.959Z,1023.23
2016-02-05T06:57:41.727Z,1023.23
2016-02-05T06:58:54.482Z,1023.23
2016-02-05T06:59:41.775Z,1023.23
2016-02-05T07:00:41.811Z,1023.2
2016-02-05T07:01:41.828Z,1023.2
2016-02-05T07:02:41.863Z,1023.21
2016-02-05T07:03:41.896Z,1023.19
2016-02-05T07:04:41.916Z,1023.22
2016-02-05T07:06:07.609Z,1023.23
2016-02-05T07:06:42.578Z,1023.23
2016-02-05T07:07:42.002Z,1023.2
2016-02-05T07:08:51.554Z,1023.24
2016-02-05T07:10:17.245Z,1023.19
2016-02-05T07:10:51.607Z,1023.22
2016-02-05T07:11:51.625Z,1023.21
2016-02-05T07:13:06.832Z,1023.22
2016-02-05T07:14:06.850Z,1023.2
2016-02-05T07:16:47.762Z,1023.2
2016-02-05T07:17:22.109Z,1023.18
2016-02-05T07:18:22.127Z,1023.2
2016-02-05T07:19:22.162Z,1023.17
2016-02-05T07:20:22.179Z,1023.18
2016-02-05T07:21:47.892Z,1023.14
2016-02-05T07:22:22.239Z,1023.16
2016-02-05T07:23:22.288Z,1023.16
2016-02-05T07:24:22.494Z,1023.17
2016-02-05T07:25:22.325Z,1023.15
2016-02-05T07:26:22.344Z,1023.14
2016-02-05T07:27:34.987Z,1023.15
2016-02-05T07:28:31.943Z,1023.14
2016-02-05T07:29:31.962Z,1023.12
2016-02-05T07:30:31.997Z,1023.14
2016-02-05T07:31:51.222Z,1023.14
2016-02-05T07:32:35.222Z,1023.14
2016-02-05T07:33:35.240Z,1023.11
2016-02-05T07:34:41.541Z,1023.18
2016-02-05T07:36:00.969Z,1023.14
2016-02-05T07:36:44.875Z,1023.09
2016-02-05T07:37:44.909Z,1023.12
2016-02-05T07:38:44.943Z,1023.13
2016-02-05T07:39:44.961Z,1023.11
2016-02-05T07:40:44.980Z,1023.12
2016-02-05T07:43:00.190Z,1023.06
2016-02-05T07:44:00.224Z,1023.07
2016-02-05T07:45:00.368Z,1023.12
2016-02-05T07:46:06.559Z,1023.08
2016-02-05T07:47:00.311Z,1023.11
2016-02-05T07:48:13.078Z,1023.1
2016-02-05T07:49:00.363Z,1023.03
2016-02-05T07:50:19.600Z,1023.06
2016-02-05T07:51:00.618Z,1023.04
2016-02-05T07:53:15.639Z,1022.97
2016-02-05T07:54:15.672Z,1022.97
2016-02-05T07:55:28.428Z,1022.92
2016-02-05T07:56:15.727Z,1022.9
2016-02-05T07:57:41.418Z,1022.91
2016-02-05T07:58:17.185Z,1022.9
2016-02-05T08:00:15.848Z,1022.85
2016-02-05T08:01:15.856Z,1022.82
2016-02-05T08:02:17.315Z,1022.8
2016-02-05T08:03:15.927Z,1022.78
2016-02-05T08:05:31.183Z,1022.74
2016-02-05T08:06:31.216Z,1022.73
2016-02-05T08:07:43.985Z,1022.7
2016-02-05T08:08:31.254Z,1022.71
2016-02-05T08:09:56.978Z,1022.68
2016-02-05T08:10:31.322Z,1022.66
2016-02-05T08:11:31.340Z,1022.68
2016-02-05T08:12:44.139Z,1022.64
2016-02-05T08:13:31.611Z,1022.64
2016-02-05T08:14:31.426Z,1022.64
2016-02-05T08:16:46.682Z,1022.62
2016-02-05T08:17:46.684Z,1022.6
2016-02-05T08:18:59.455Z,1022.57
2016-02-05T08:19:46.755Z,1022.54
2016-02-05T08:21:05.979Z,1022.55
2016-02-05T08:21:46.823Z,1022.56
2016-02-05T08:22:46.827Z,1022.51
2016-02-05T08:24:02.737Z,1022.53
2016-02-05T08:24:56.505Z,1022.55
2016-02-05T08:25:56.524Z,1022.54
2016-02-05T08:26:56.558Z,1022.55
2016-02-05T08:27:56.594Z,1022.57
2016-02-05T08:28:56.628Z,1022.54
2016-02-05T08:30:09.381Z,1022.59
2016-02-05T08:31:02.932Z,1022.6
2016-02-05T08:31:56.700Z,1022.58
2016-02-05T08:32:56.719Z,1022.58
2016-02-05T08:33:56.752Z,1022.58
2016-02-05T08:35:22.458Z,1022.57
2016-02-05T08:36:06.352Z,1022.56
2016-02-05T08:37:06.370Z,1022.53
2016-02-05T08:38:06.404Z,1022.48
2016-02-05T08:39:06.438Z,1022.49
2016-02-05T08:40:12.722Z,1022.47
2016-02-05T08:41:06.491Z,1022.43
2016-02-05T08:42:06.525Z,1022.46
2016-02-05T08:43:12.808Z,1022.43
2016-02-05T08:44:25.765Z,1022.41
2016-02-05T08:45:06.596Z,1022.43
2016-02-05T08:46:32.302Z,1022.41
2016-02-05T08:47:12.913Z,1022.38
2016-02-05T08:49:21.874Z,1022.34
2016-02-05T08:50:21.924Z,1022.33
2016-02-05T08:51:21.926Z,1022.34
2016-02-05T08:52:37.119Z,1022.24
2016-02-05T08:53:37.152Z,1022.24
2016-02-05T08:54:49.905Z,1022.21
2016-02-05T08:55:37.814Z,1022.27
2016-02-05T08:57:02.913Z,1022.25
2016-02-05T08:57:59.572Z,1022.26
2016-02-05T08:59:05.855Z,1022.25
2016-02-05T09:00:15.407Z,1022.24
2016-02-05T09:02:25.040Z,1022.26
2016-02-05T09:03:25.090Z,1022.24
2016-02-05T09:04:37.701Z,1022.25
2016-02-05T09:06:00.398Z,1022.24
2016-02-05T09:07:46.901Z,1022.24
2016-02-05T09:08:46.918Z,1022.27
2016-02-05T09:09:53.218Z,1022.25
2016-02-05T09:10:46.987Z,1022.22
2016-02-05T09:11:47.004Z,1022.21
2016-02-05T09:12:47.024Z,1022.26
2016-02-05T09:13:47.059Z,1022.22
2016-02-05T09:14:53.346Z,1022.24
2016-02-05T09:16:12.790Z,1022.23
2016-02-05T09:16:56.774Z,1022.24
2016-02-05T09:18:22.421Z,1022.19
2016-02-05T09:20:21.481Z,1022.22
2016-02-05T09:21:21.515Z,1022.21
2016-02-05T09:22:21.534Z,1022.19
2016-02-05T09:23:27.817Z,1022.22
2016-02-05T09:24:21.585Z,1022.19
2016-02-05T09:25:34.358Z,1022.18
2016-02-05T09:26:21.641Z,1022.2
2016-02-05T09:27:40.879Z,1022.17
2016-02-05T09:28:21.710Z,1022.13
2016-02-05T09:30:36.918Z,1022.1
2016-02-05T09:31:36.951Z,1022.1
2016-02-05T09:32:49.704Z,1022.1
2016-02-05T09:33:49.738Z,1022.14
2016-02-05T09:34:37.023Z,1022.12
2016-02-05T09:36:02.732Z,1022.1
2016-02-05T09:36:37.091Z,1022.02
2016-02-05T09:38:52.455Z,1022.05
2016-02-05T09:39:52.473Z,1022.03
2016-02-05T09:41:05.245Z,1021.93
2016-02-05T09:42:05.278Z,1022.01
2016-02-05T09:42:52.559Z,1021.97
2016-02-05T09:44:21.330Z,1021.97
2016-02-05T09:45:30.849Z,1022
2016-02-05T09:46:14.743Z,1021.98
2016-02-05T09:47:34.012Z,1021.96
2016-02-05T09:49:18.021Z,1021.98
2016-02-05T09:50:18.023Z,1021.92
2016-02-05T09:51:21.946Z,1021.9
2016-02-05T09:52:21.965Z,1021.87
2016-02-05T09:53:22.000Z,1021.89
2016-02-05T09:55:32.178Z,1021.88
2016-02-05T09:56:32.211Z,1021.86
2016-02-05T09:57:32.230Z,1021.82
2016-02-05T09:58:45.015Z,1021.76
2016-02-05T09:59:32.300Z,1021.84
2016-02-05T10:00:32.317Z,1021.79
2016-02-05T10:01:32.351Z,1021.73
2016-02-05T10:02:32.979Z,1021.73
2016-02-05T10:03:45.139Z,1021.67
2016-02-05T10:04:58.095Z,1021.7
2016-02-05T10:05:42.021Z,1021.71
2016-02-05T10:06:42.069Z,1021.67
2016-02-05T10:07:42.088Z,1021.68
2016-02-05T10:08:51.654Z,1021.64
2016-02-05T10:09:51.671Z,1021.61
2016-02-05T10:11:06.865Z,1021.6
2016-02-05T10:12:06.882Z,1021.59
2016-02-05T10:13:06.917Z,1021.58
2016-02-05T10:14:22.123Z,1021.53
2016-02-05T10:15:22.156Z,1021.48
2016-02-05T10:16:22.177Z,1021.5
2016-02-05T10:17:23.616Z,1021.5
2016-02-05T10:18:28.498Z,1021.51
2016-02-05T10:19:22.267Z,1021.49
2016-02-05T10:20:35.034Z,1021.46
2016-02-05T10:21:47.990Z,1021.49
2016-02-05T10:22:51.118Z,1021.47
2016-02-05T10:23:34.996Z,1021.47
2016-02-05T10:24:35.030Z,1021.44
2016-02-05T10:25:35.064Z,1021.43
2016-02-05T10:26:35.081Z,1021.48
2016-02-05T10:27:41.382Z,1021.48
2016-02-05T10:28:35.134Z,1021.44
2016-02-05T10:29:35.169Z,1021.46
2016-02-05T10:30:47.936Z,1021.41
2016-02-05T10:32:00.892Z,1021.36
2016-02-05T10:32:35.239Z,1021.35
2016-02-05T10:34:45.435Z,1021.3
2016-02-05T10:35:45.469Z,1021.29
2016-02-05T10:36:55.097Z,1021.28
2016-02-05T10:37:55.131Z,1021.28
2016-02-05T10:38:55.151Z,1021.27
2016-02-05T10:40:02.107Z,1021.22
2016-02-05T10:42:14.271Z,1021.13
2016-02-05T10:43:14.305Z,1021.15
2016-02-05T10:44:20.588Z,1021.12
2016-02-05T10:45:20.623Z,1021.1
2016-02-05T10:46:27.126Z,1021.1
2016-02-05T10:47:27.143Z,1021.01
2016-02-05T10:48:14.443Z,1021.01
2016-02-05T10:49:40.134Z,1020.97
2016-02-05T10:50:24.026Z,1020.95
2016-02-05T10:51:43.248Z,1020.95
2016-02-05T10:54:27.162Z,1020.91
2016-02-05T10:55:27.197Z,1020.94
2016-02-05T10:56:27.215Z,1020.96
2016-02-05T10:57:27.248Z,1020.9
2016-02-05T10:58:33.533Z,1021
2016-02-05T10:59:27.287Z,1021.02
2016-02-05T11:00:40.054Z,1020.92
2016-02-05T11:01:53.026Z,1020.94
2016-02-05T11:02:53.047Z,1020.92
2016-02-05T11:03:53.080Z,1020.88
2016-02-05T11:05:08.289Z,1020.93
2016-02-05T11:06:08.322Z,1020.87
2016-02-05T11:07:08.341Z,1020.89
2016-02-05T11:08:17.905Z,1020.91
2016-02-05T11:09:17.940Z,1020.91
2016-02-05T11:10:18.161Z,1020.86
2016-02-05T11:11:24.259Z,1020.82
2016-02-05T11:12:18.011Z,1020.76
2016-02-05T11:13:37.249Z,1020.73
2016-02-05T11:14:21.189Z,1020.74
2016-02-05T11:15:46.894Z,1020.79
2016-02-05T11:17:02.087Z,1020.67
2016-02-05T11:18:14.842Z,1020.7
2016-02-05T11:19:11.472Z,1020.7
2016-02-05T11:20:21.099Z,1020.67
2016-02-05T11:21:21.117Z,1020.68
2016-02-05T11:22:30.666Z,1020.71
2016-02-05T11:23:30.685Z,1020.68
2016-02-05T11:24:30.720Z,1020.68
2016-02-05T11:25:31.348Z,1020.68
2016-02-05T11:26:43.506Z,1020.68
2016-02-05T11:27:30.790Z,1020.67
2016-02-05T11:28:56.512Z,1020.68
2016-02-05T11:30:43.627Z,1020.61
2016-02-05T11:31:43.662Z,1020.6
2016-02-05T11:32:43.681Z,1020.55
2016-02-05T11:33:43.715Z,1020.61
2016-02-05T11:34:43.749Z,1020.59
2016-02-05T11:36:02.970Z,1020.54
2016-02-05T11:36:48.275Z,1020.51
2016-02-05T11:38:10.561Z,1020.53
2016-02-05T11:38:57.858Z,1020.54
2016-02-05T11:41:29.820Z,1020.47
2016-02-05T11:43:44.965Z,1020.42
2016-02-05T11:44:44.984Z,1020.41
2016-02-05T11:47:00.223Z,1020.42
2016-02-05T11:48:00.258Z,1020.42
2016-02-05T11:49:06.447Z,1020.39
2016-02-05T11:50:29.109Z,1020.37
2016-02-05T11:51:03.469Z,1020.37
2016-02-05T11:52:03.503Z,1020.36
2016-02-05T11:53:13.055Z,1020.37
2016-02-05T11:54:13.088Z,1020.36
2016-02-05T11:55:19.388Z,1020.34
2016-02-05T11:56:13.157Z,1020.3
2016-02-05T11:57:25.909Z,1020.31
2016-02-05T11:58:13.194Z,1020.29
2016-02-05T11:59:32.447Z,1020.31
2016-02-05T12:00:16.339Z,1020.3
2016-02-05T12:01:42.045Z,1020.29
2016-02-05T12:02:22.659Z,1020.28
2016-02-05T12:03:16.427Z,1020.27
2016-02-05T12:04:31.604Z,1020.29
2016-02-05T12:05:31.638Z,1020.26
2016-02-05T12:06:44.391Z,1020.23
2016-02-05T12:07:31.690Z,1020.25
2016-02-05T12:08:31.709Z,1020.25
2016-02-05T12:09:31.758Z,1020.25
2016-02-05T12:10:31.780Z,1020.26
2016-02-05T12:11:44.548Z,1020.28
2016-02-05T12:12:31.817Z,1020.25
2016-02-05T12:13:51.054Z,1020.25
2016-02-05T12:14:31.884Z,1020.21
2016-02-05T12:16:48.514Z,1020.2
2016-02-05T12:17:48.550Z,1020.14
2016-02-05T12:18:48.585Z,1020.19
2016-02-05T12:20:01.338Z,1020.16
2016-02-05T12:20:48.637Z,1020.11
2016-02-05T12:22:07.858Z,1020.12
2016-02-05T12:22:48.676Z,1020.11
2016-02-05T12:24:58.416Z,1020.11
2016-02-05T12:27:08.000Z,1019.99
2016-02-05T12:29:23.398Z,1019.99
2016-02-05T12:30:23.404Z,1019.93
2016-02-05T12:31:23.437Z,1019.92
2016-02-05T12:32:23.471Z,1019.98
2016-02-05T12:33:33.055Z,1019.97
2016-02-05T12:34:42.669Z,1019.92
2016-02-05T12:36:08.374Z,1019.95
2016-02-05T12:36:52.267Z,1019.93
2016-02-05T12:38:27.339Z,1019.93
2016-02-05T12:39:14.622Z,1019.92
2016-02-05T12:40:14.719Z,1019.98
2016-02-05T12:42:24.240Z,1019.9
2016-02-05T12:43:24.259Z,1019.87
2016-02-05T12:44:33.809Z,1019.82
2016-02-05T12:47:14.723Z,1019.77
2016-02-05T12:47:49.083Z,1019.78
2016-02-05T12:50:31.392Z,1019.83
2016-02-05T12:51:05.752Z,1019.81
2016-02-05T12:53:20.977Z,1019.75
2016-02-05T12:54:21.012Z,1019.77
2016-02-05T12:55:21.033Z,1019.74
2016-02-05T12:56:21.052Z,1019.7
2016-02-05T12:57:27.352Z,1019.68
2016-02-05T12:58:21.105Z,1019.68
2016-02-05T12:59:36.310Z,1019.67
2016-02-05T13:00:36.361Z,1019.67
2016-02-05T13:01:36.363Z,1019.65
2016-02-05T13:02:51.554Z,1019.62
2016-02-05T13:03:51.588Z,1019.67
2016-02-05T13:06:07.432Z,1019.66
2016-02-05T13:07:07.466Z,1019.63
2016-02-05T13:08:33.159Z,1019.61
2016-02-05T13:09:11.581Z,1019.62
2016-02-05T13:11:24.202Z,1019.61
2016-02-05T13:12:21.189Z,1019.57
2016-02-05T13:13:30.754Z,1019.59
2016-02-05T13:14:30.773Z,1019.56
2016-02-05T13:15:43.542Z,1019.59
2016-02-05T13:16:30.826Z,1019.58
2016-02-05T13:17:50.063Z,1019.6
2016-02-05T13:19:56.585Z,1019.55
2016-02-05T13:20:30.946Z,1019.54
2016-02-05T13:22:40.718Z,1019.51
2016-02-05T13:23:40.784Z,1019.54
2016-02-05T13:24:53.506Z,1019.5
2016-02-05T13:25:40.789Z,1019.51
2016-02-05T13:26:53.558Z,1019.44
2016-02-05T13:27:41.451Z,1019.44
2016-02-05T13:28:40.877Z,1019.43
2016-02-05T13:29:40.911Z,1019.39
2016-02-05T13:30:40.916Z,1019.43
2016-02-05T13:31:40.964Z,1019.41
2016-02-05T13:32:41.020Z,1019.36
2016-02-05T13:33:41.232Z,1019.37
2016-02-05T13:34:41.022Z,1019.42
2016-02-05T13:35:44.745Z,1019.37